createdAt,value
2018-06-24T00:02:47.829Z,92.25
2018-06-24T00:05:50.976Z,91.99
2018-06-24T00:08:54.751Z,92.24
2018-06-24T00:11:57.793Z,92.40
2018-06-24T00:15:00.862Z,92.40
2018-06-24T00:18:04.126Z,92.65
2018-06-24T00:21:07.309Z,92.46
2018-06-24T00:24:10.524Z,92.13
2018-06-24T00:27:13.641Z,92.43
2018-06-24T00:30:16.893Z,92.59
2018-06-24T00:33:20.188Z,92.88
2018-06-24T00:36:23.248Z,93.27
2018-06-24T00:39:26.488Z,92.99
2018-06-24T00:42:29.743Z,93.19
2018-06-24T00:45:32.781Z,93.47
2018-06-24T00:48:35.896Z,93.38
2018-06-24T00:51:38.990Z,93.22
2018-06-24T00:54:43.117Z,93.24
2018-06-24T00:57:46.117Z,93.61
2018-06-24T01:00:49.283Z,93.82
2018-06-24T01:03:52.428Z,93.69
2018-06-24T01:06:55.454Z,93.55
2018-06-24T01:09:59.856Z,93.71
2018-06-24T01:13:03.083Z,93.74
2018-06-24T01:16:07.993Z,93.50
2018-06-24T01:19:11.342Z,93.67
2018-06-24T01:22:14.510Z,93.99
2018-06-24T01:25:17.514Z,93.95
2018-06-24T01:28:20.516Z,93.84
2018-06-24T01:31:23.763Z,93.84
2018-06-24T01:34:27.917Z,93.36
2018-06-24T01:37:31.159Z,92.98
2018-06-24T01:40:34.275Z,92.82
2018-06-24T01:43:38.250Z,92.23
2018-06-24T01:46:41.347Z,92.34
2018-06-24T01:49:44.627Z,91.80
2018-06-24T01:52:47.730Z,91.53
2018-06-24T01:55:50.834Z,91.37
2018-06-24T01:58:54.367Z,91.62
2018-06-24T02:01:57.387Z,91.61
2018-06-24T02:05:00.370Z,91.40
2018-06-24T02:08:03.712Z,91.31
2018-06-24T02:11:07.040Z,91.14
2018-06-24T02:14:10.331Z,90.90
2018-06-24T02:17:13.372Z,89.41
2018-06-24T02:20:16.609Z,89.14
2018-06-24T02:23:19.807Z,89.08
2018-06-24T02:26:22.995Z,88.69
2018-06-24T02:29:26.121Z,90.63
2018-06-24T02:32:29.290Z,90.60
2018-06-24T02:35:32.341Z,90.68
2018-06-24T02:38:36.411Z,90.68
2018-06-24T02:41:39.565Z,91.20
2018-06-24T02:44:42.621Z,90.60
2018-06-24T02:47:45.758Z,90.54
2018-06-24T02:50:48.864Z,90.00
2018-06-24T02:53:51.876Z,89.95
2018-06-24T02:56:54.881Z,90.31
2018-06-24T02:59:57.982Z,90.67
2018-06-24T03:03:01.066Z,90.09
2018-06-24T03:06:04.103Z,89.72
2018-06-24T03:09:09.328Z,89.79
2018-06-24T03:12:12.566Z,89.22
2018-06-24T03:15:15.847Z,89.32
2018-06-24T03:18:19.097Z,89.85
2018-06-24T03:21:22.166Z,89.87
2018-06-24T03:24:25.377Z,89.39
2018-06-24T03:27:28.632Z,89.36
2018-06-24T03:30:31.748Z,89.49
2018-06-24T03:33:36.044Z,89.59
2018-06-24T03:36:39.290Z,89.68
2018-06-24T03:39:42.336Z,89.55
2018-06-24T03:42:45.508Z,88.92
2018-06-24T03:45:48.640Z,89.13
2018-06-24T03:48:53.004Z,88.41
2018-06-24T03:51:56.184Z,88.43
2018-06-24T03:54:59.295Z,89.11
2018-06-24T03:58:02.599Z,89.80
2018-06-24T04:01:05.890Z,90.01
2018-06-24T04:04:08.827Z,89.79
2018-06-24T04:07:11.827Z,87.21
2018-06-24T04:10:14.896Z,84.59
2018-06-24T04:13:17.965Z,80.05
2018-06-24T04:16:20.975Z,76.90
2018-06-24T04:19:24.139Z,78.16
2018-06-24T04:22:27.165Z,78.08
2018-06-24T04:25:30.205Z,75.75
2018-06-24T04:28:33.220Z,75.62
2018-06-24T04:31:36.247Z,70.61
2018-06-24T04:34:39.364Z,63.41
2018-06-24T04:37:42.412Z,59.52
2018-06-24T04:40:45.458Z,59.05
2018-06-24T04:43:48.508Z,57.03
2018-06-24T04:46:51.703Z,58.72
2018-06-24T04:49:54.924Z,63.70
2018-06-24T04:52:58.079Z,66.69
2018-06-24T04:56:01.338Z,71.28
2018-06-24T04:59:04.693Z,72.51
2018-06-24T05:02:08.913Z,74.70
2018-06-24T05:05:12.179Z,77.50
2018-06-24T05:08:15.409Z,78.45
2018-06-24T05:11:18.689Z,79.51
2018-06-24T05:14:21.921Z,79.33
2018-06-24T05:17:25.183Z,79.58
2018-06-24T05:20:28.508Z,78.83
2018-06-24T05:23:32.924Z,79.55
2018-06-24T05:26:36.105Z,81.41
2018-06-24T05:29:39.528Z,81.82
2018-06-24T05:32:43.504Z,81.86
2018-06-24T05:35:46.629Z,83.26
2018-06-24T05:38:49.694Z,82.92
2018-06-24T05:41:52.704Z,81.50
2018-06-24T05:44:56.790Z,81.16
2018-06-24T05:47:59.886Z,77.95
2018-06-24T05:51:04.151Z,76.76
2018-06-24T05:54:07.574Z,74.74
2018-06-24T05:57:11.556Z,72.28
2018-06-24T06:00:14.697Z,70.08
2018-06-24T06:03:18.081Z,65.70
2018-06-24T06:06:21.888Z,58.63
2018-06-24T06:09:25.348Z,48.23
2018-06-24T06:12:28.759Z,50.13
2018-06-24T06:15:32.337Z,54.11
2018-06-24T06:18:37.476Z,54.99
2018-06-24T06:21:40.885Z,53.74
2018-06-24T06:24:44.067Z,52.16
2018-06-24T06:27:47.247Z,44.97
2018-06-24T06:30:50.552Z,45.36
2018-06-24T06:33:54.948Z,47.25
2018-06-24T06:36:58.520Z,49.63
2018-06-24T06:40:01.766Z,44.45
2018-06-24T06:43:05.160Z,45.11
2018-06-24T06:46:10.887Z,49.74
2018-06-24T06:49:14.136Z,55.72
2018-06-24T06:52:17.395Z,56.69
2018-06-24T06:55:20.454Z,55.75
2018-06-24T06:58:24.489Z,60.41
2018-06-24T07:01:27.452Z,59.80
2018-06-24T07:04:30.487Z,57.50
2018-06-24T07:07:34.701Z,57.33
2018-06-24T07:10:38.740Z,51.98
2018-06-24T07:13:41.808Z,52.89
2018-06-24T07:16:46.114Z,58.06
2018-06-24T07:19:49.298Z,57.98
2018-06-24T07:22:52.488Z,57.79
2018-06-24T07:25:55.603Z,61.92
2018-06-24T07:29:00.005Z,63.22
2018-06-24T07:32:03.190Z,59.85
2018-06-24T07:35:06.367Z,60.90
2018-06-24T07:38:09.627Z,62.84
2018-06-24T07:41:12.780Z,58.78
2018-06-24T07:44:15.895Z,50.05
2018-06-24T07:47:19.146Z,42.90
2018-06-24T07:50:22.588Z,48.74
2018-06-24T07:53:26.123Z,55.42
2018-06-24T07:56:29.496Z,60.28
2018-06-24T07:59:32.501Z,60.22
2018-06-24T08:02:35.653Z,62.34
2018-06-24T08:05:38.975Z,62.76
2018-06-24T08:08:42.157Z,59.25
2018-06-24T08:11:45.375Z,55.86
2018-06-24T08:14:48.754Z,52.59
2018-06-24T08:17:51.902Z,51.05
2018-06-24T08:25:01.698Z,49.76
2018-06-24T08:28:04.909Z,46.45
2018-06-24T08:31:08.494Z,44.85
2018-06-24T08:34:11.571Z,45.94
2018-06-24T08:37:14.710Z,46.46
2018-06-24T08:40:18.019Z,47.60
2018-06-24T08:43:21.124Z,48.41
2018-06-24T08:46:24.345Z,53.14
2018-06-24T08:49:27.860Z,56.65
2018-06-24T08:52:31.184Z,56.76
2018-06-24T08:55:34.376Z,57.70
2018-06-24T08:58:37.567Z,55.34
2018-06-24T09:01:40.736Z,54.08
2018-06-24T09:04:44.021Z,53.28
2018-06-24T09:07:47.570Z,54.02
2018-06-24T09:10:51.894Z,54.96
2018-06-24T09:13:55.192Z,53.94
2018-06-24T09:16:58.551Z,52.34
2018-06-24T09:20:02.300Z,52.42
2018-06-24T09:23:05.657Z,49.81
2018-06-24T09:26:08.843Z,48.04
2018-06-24T09:29:12.324Z,47.76
2018-06-24T09:32:15.273Z,46.56
2018-06-24T09:35:18.415Z,45.62
2018-06-24T09:38:21.579Z,45.44
2018-06-24T09:41:24.953Z,45.63
2018-06-24T09:44:28.103Z,44.95
2018-06-24T09:47:31.446Z,42.63
2018-06-24T09:50:34.748Z,45.37
2018-06-24T09:53:38.139Z,44.71
2018-06-24T09:56:41.385Z,43.78
2018-06-24T09:59:44.801Z,43.16
2018-06-24T10:02:48.366Z,45.64
2018-06-24T10:05:52.548Z,49.24
2018-06-24T10:08:55.747Z,48.36
2018-06-24T10:11:59.033Z,47.29
2018-06-24T10:15:02.377Z,47.76
2018-06-24T10:18:05.935Z,46.14
2018-06-24T10:21:09.097Z,44.29
2018-06-24T10:24:12.778Z,44.43
2018-06-24T10:27:16.126Z,42.24
2018-06-24T10:30:19.417Z,42.47
2018-06-24T10:33:22.755Z,45.40
2018-06-24T10:36:26.308Z,48.05
2018-06-24T10:39:29.533Z,48.22
2018-06-24T10:42:32.614Z,47.50
2018-06-24T10:45:35.727Z,44.48
2018-06-24T10:48:38.798Z,42.51
2018-06-24T10:51:41.921Z,44.94
2018-06-24T10:54:45.444Z,42.78
2018-06-24T10:57:48.769Z,41.71
2018-06-24T11:00:52.076Z,42.88
2018-06-24T11:03:55.579Z,42.66
2018-06-24T11:06:59.507Z,42.89
2018-06-24T11:10:03.379Z,46.20
2018-06-24T11:13:06.725Z,46.24
2018-06-24T11:16:10.037Z,47.81
2018-06-24T11:19:13.389Z,47.20
2018-06-24T11:22:16.705Z,46.10
2018-06-24T11:25:20.016Z,44.59
2018-06-24T11:28:23.297Z,45.36
2018-06-24T11:31:26.431Z,45.53
2018-06-24T11:34:29.728Z,42.98
2018-06-24T11:37:32.872Z,44.43
2018-06-24T11:40:36.069Z,44.47
2018-06-24T11:43:39.181Z,45.72
2018-06-24T11:46:42.377Z,47.02
2018-06-24T11:49:45.780Z,46.08
2018-06-24T11:52:49.124Z,44.94
2018-06-24T11:55:52.502Z,42.48
2018-06-24T11:58:57.311Z,41.10
2018-06-24T12:02:00.298Z,42.49
2018-06-24T12:05:03.382Z,43.94
2018-06-24T12:08:06.732Z,45.03
2018-06-24T12:11:10.019Z,44.36
2018-06-24T12:14:13.447Z,45.04
2018-06-24T12:17:16.507Z,45.25
2018-06-24T12:20:19.644Z,45.02
2018-06-24T12:23:22.817Z,44.91
2018-06-24T12:26:26.027Z,44.78
2018-06-24T12:29:29.277Z,44.11
2018-06-24T12:32:32.581Z,43.27
2018-06-24T12:35:36.173Z,44.49
2018-06-24T12:38:39.360Z,40.44
2018-06-24T12:41:42.536Z,40.14
2018-06-24T12:44:45.586Z,40.24
2018-06-24T12:47:48.742Z,38.27
2018-06-24T12:50:51.920Z,41.24
2018-06-24T12:53:55.051Z,44.69
2018-06-24T12:56:58.122Z,45.26
2018-06-24T13:00:01.831Z,46.60
2018-06-24T13:03:04.507Z,46.49
2018-06-24T13:06:07.561Z,45.77
2018-06-24T13:09:10.903Z,45.63
2018-06-24T13:12:14.196Z,44.83
2018-06-24T13:15:17.579Z,45.27
2018-06-24T13:18:21.012Z,43.80
2018-06-24T13:21:24.100Z,41.70
2018-06-24T13:24:27.296Z,40.64
2018-06-24T13:27:30.486Z,41.02
2018-06-24T13:30:33.613Z,42.22
2018-06-24T13:33:36.760Z,42.79
2018-06-24T13:36:41.030Z,41.36
2018-06-24T13:39:44.045Z,41.76
2018-06-24T13:42:48.130Z,42.69
2018-06-24T13:45:51.262Z,41.60
2018-06-24T13:48:55.248Z,42.55
2018-06-24T13:51:58.539Z,42.72
2018-06-24T13:55:01.782Z,42.25
2018-06-24T13:58:05.544Z,42.51
2018-06-24T14:01:08.881Z,43.00
2018-06-24T14:04:12.231Z,41.87
2018-06-24T14:07:15.550Z,41.67
2018-06-24T14:10:18.753Z,40.85
2018-06-24T14:13:22.037Z,41.06
2018-06-24T14:16:25.022Z,40.23
2018-06-24T14:19:28.066Z,41.20
2018-06-24T14:22:31.171Z,40.94
2018-06-24T14:25:34.341Z,40.93
2018-06-24T14:28:37.431Z,41.09
2018-06-24T14:31:40.751Z,41.88
2018-06-24T14:34:43.997Z,42.42
2018-06-24T14:37:47.399Z,43.36
2018-06-24T14:40:50.864Z,43.63
2018-06-24T14:43:53.917Z,45.59
2018-06-24T14:46:57.041Z,45.57
2018-06-24T14:50:00.476Z,45.38
2018-06-24T14:53:03.781Z,47.19
2018-06-24T14:56:07.039Z,46.88
2018-06-24T14:59:10.228Z,48.87
2018-06-24T15:02:13.525Z,48.96
2018-06-24T15:05:16.817Z,49.09
2018-06-24T15:08:20.207Z,49.64
2018-06-24T15:11:23.629Z,49.59
2018-06-24T15:14:26.867Z,49.54
2018-06-24T15:17:30.110Z,49.24
2018-06-24T15:20:33.571Z,49.57
2018-06-24T15:23:36.883Z,49.00
2018-06-24T15:26:40.010Z,50.33
2018-06-24T15:29:43.432Z,50.57
2018-06-24T15:32:46.816Z,49.38
2018-06-24T15:35:50.597Z,48.54
2018-06-24T15:38:54.963Z,49.21
2018-06-24T15:41:58.510Z,49.11
2018-06-24T15:45:01.671Z,50.50
2018-06-24T15:48:05.228Z,51.02
2018-06-24T15:51:08.763Z,50.56
2018-06-24T15:54:12.097Z,50.47
2018-06-24T15:57:15.605Z,51.03
2018-06-24T16:00:20.345Z,49.89
2018-06-24T16:03:23.558Z,50.38
2018-06-24T16:06:28.867Z,49.75
2018-06-24T16:09:32.186Z,50.65
2018-06-24T16:12:35.626Z,49.54
2018-06-24T16:15:39.251Z,51.02
2018-06-24T16:18:43.337Z,50.37
2018-06-24T16:21:46.499Z,50.51
2018-06-24T16:24:49.630Z,50.54
2018-06-24T16:27:52.990Z,51.49
2018-06-24T16:30:57.644Z,51.50
2018-06-24T16:34:02.265Z,51.58
2018-06-24T16:37:05.434Z,52.15
2018-06-24T16:40:09.382Z,52.15
2018-06-24T16:43:12.630Z,52.23
2018-06-24T16:46:15.976Z,52.43
2018-06-24T16:49:19.263Z,52.94
2018-06-24T16:52:22.349Z,52.74
2018-06-24T16:55:25.559Z,52.76
2018-06-24T16:58:28.739Z,53.61
2018-06-24T17:01:31.856Z,52.96
2018-06-24T17:04:35.047Z,53.07
2018-06-24T17:07:38.245Z,53.00
2018-06-24T17:10:41.684Z,53.07
2018-06-24T17:13:45.689Z,54.09
2018-06-24T17:16:48.931Z,53.87
2018-06-24T17:19:55.710Z,53.29
2018-06-24T17:22:58.914Z,54.46
2018-06-24T17:26:02.017Z,54.72
2018-06-24T17:29:05.169Z,55.21
2018-06-24T17:32:08.571Z,55.46
2018-06-24T17:35:11.901Z,55.90
2018-06-24T17:38:15.335Z,56.24
2018-06-24T17:41:18.801Z,55.73
2018-06-24T17:44:22.163Z,55.11
2018-06-24T17:47:25.585Z,56.32
2018-06-24T17:50:28.979Z,56.34
2018-06-24T17:53:32.419Z,56.86
2018-06-24T17:56:35.603Z,57.64
2018-06-24T17:59:38.517Z,57.01
2018-06-24T18:02:41.610Z,57.14
2018-06-24T18:05:44.749Z,56.65
2018-06-24T18:08:47.816Z,57.78
2018-06-24T18:11:51.099Z,57.52
2018-06-24T18:14:59.758Z,58.54
2018-06-24T18:18:02.982Z,58.76
2018-06-24T18:21:06.149Z,58.85
2018-06-24T18:24:10.459Z,59.38
2018-06-24T18:27:15.815Z,59.44
2018-06-24T18:30:19.187Z,60.17
2018-06-24T18:33:23.169Z,59.60
2018-06-24T18:36:26.405Z,60.40
2018-06-24T18:39:29.598Z,60.26
2018-06-24T18:42:32.745Z,60.83
2018-06-24T18:45:35.879Z,62.10
2018-06-24T18:48:39.390Z,61.44
2018-06-24T18:51:42.742Z,62.36
2018-06-24T18:54:46.991Z,62.89
2018-06-24T18:57:50.388Z,62.90
2018-06-24T19:00:53.602Z,62.99
2018-06-24T19:03:57.873Z,63.85
2018-06-24T19:07:01.966Z,63.58
2018-06-24T19:10:11.842Z,64.45
2018-06-24T19:13:15.135Z,64.95
2018-06-24T19:16:18.366Z,64.62
2018-06-24T19:19:21.710Z,65.80
2018-06-24T19:22:25.058Z,65.64
2018-06-24T19:25:28.311Z,66.35
2018-06-24T19:28:31.691Z,65.89
2018-06-24T19:31:35.004Z,66.02
2018-06-24T19:34:38.334Z,65.98
2018-06-24T19:37:41.616Z,66.61
2018-06-24T19:40:45.104Z,66.34
2018-06-24T19:43:48.433Z,67.11
2018-06-24T19:46:52.871Z,67.34
2018-06-24T19:49:56.372Z,66.52
2018-06-24T19:52:59.579Z,67.05
2018-06-24T19:56:02.964Z,67.67
2018-06-24T19:59:07.310Z,67.92
2018-06-24T20:02:11.592Z,67.95
2018-06-24T20:05:15.703Z,67.67
2018-06-24T20:08:18.920Z,68.43
2018-06-24T20:11:22.198Z,68.58
2018-06-24T20:14:25.624Z,67.98
2018-06-24T20:17:28.948Z,68.08
2018-06-24T20:20:32.011Z,68.91
2018-06-24T20:23:35.394Z,68.63
2018-06-24T20:27:09.409Z,68.79
2018-06-24T20:30:12.719Z,69.40
2018-06-24T20:33:16.023Z,69.17
2018-06-24T20:36:19.675Z,69.03
2018-06-24T20:39:23.114Z,69.95
2018-06-24T20:42:26.468Z,70.62
2018-06-24T20:45:29.623Z,69.55
2018-06-24T20:48:32.741Z,69.77
2018-06-24T20:51:36.000Z,69.55
2018-06-24T20:54:39.119Z,69.96
2018-06-24T20:57:42.303Z,70.56
2018-06-24T21:00:45.573Z,70.98
2018-06-24T21:03:49.024Z,70.50
2018-06-24T21:06:52.247Z,70.90
2018-06-24T21:09:55.633Z,71.32
2018-06-24T21:12:59.098Z,71.56
2018-06-24T21:16:02.268Z,71.64
2018-06-24T21:19:05.549Z,71.53
2018-06-24T21:22:08.780Z,72.27
2018-06-24T21:25:12.014Z,71.78
2018-06-24T21:28:15.401Z,72.07
2018-06-24T21:31:18.758Z,72.56
2018-06-24T21:34:22.065Z,73.18
2018-06-24T21:37:25.441Z,73.60
2018-06-24T21:40:28.807Z,73.50
2018-06-24T21:43:32.211Z,72.80
2018-06-24T21:46:35.557Z,73.49
2018-06-24T21:49:38.691Z,74.10
2018-06-24T21:52:43.096Z,74.01
2018-06-24T21:55:46.497Z,74.12
2018-06-24T21:58:50.241Z,74.25
2018-06-24T22:01:53.613Z,74.42
2018-06-24T22:04:56.987Z,74.31
2018-06-24T22:08:01.571Z,74.48
2018-06-24T22:11:07.017Z,75.02
2018-06-24T22:14:12.014Z,75.14
2018-06-24T22:17:15.731Z,75.53
2018-06-24T22:20:20.083Z,75.48
2018-06-24T22:23:23.505Z,75.86
2018-06-24T22:26:27.244Z,76.06
2018-06-24T22:29:30.917Z,76.42
2018-06-24T22:32:34.760Z,75.93
2018-06-24T22:35:38.151Z,75.92
2018-06-24T22:38:41.573Z,76.19
2018-06-24T22:41:44.831Z,76.51
2018-06-24T22:44:48.499Z,77.00
2018-06-24T22:47:52.435Z,76.44
2018-06-24T22:50:56.619Z,76.85
2018-06-24T22:54:01.280Z,76.55
2018-06-24T22:57:05.215Z,77.11
2018-06-24T23:00:14.472Z,77.17
2018-06-24T23:03:17.794Z,77.49
2018-06-24T23:06:21.736Z,77.52
2018-06-24T23:09:26.068Z,78.21
2018-06-24T23:12:30.592Z,78.21
2018-06-24T23:15:33.774Z,78.05
2018-06-24T23:18:38.475Z,78.89
2018-06-24T23:21:42.782Z,78.11
2018-06-24T23:24:46.229Z,78.43
2018-06-24T23:27:49.499Z,77.80
2018-06-24T23:30:52.744Z,78.41
2018-06-24T23:33:56.408Z,78.24
2018-06-24T23:36:59.767Z,78.88
2018-06-24T23:40:04.138Z,78.55
2018-06-24T23:43:07.263Z,78.91
2018-06-24T23:46:10.587Z,78.92
2018-06-24T23:49:14.117Z,78.95
2018-06-24T23:52:17.454Z,79.17
2018-06-24T23:55:20.722Z,79.44
2018-06-24T23:58:23.953Z,79.40
